Time;durP1;ratioP1;P1;durP2;ratioP2;P2;SDS_P1;SDS_P2;PMS_P1;PMS_P2;Temp;Humidity;BMP_temperature;BMP_pressure;BME280_temperature;BME280_humidity;BME280_pressure;Samples;Min_cycle;Max_cycle;Signal;HPM_P1;HPM_P2
2023/12/31 00:00:54;;;;;;;4.82;2.15;;;;;;;20.22;42.67;100457.91;5040164;28;20107;-81
2023/12/31 00:03:19;;;;;;;3.95;2.25;;;;;;;20.25;42.71;100468.09;5005525;28;20067;-81
2023/12/31 00:05:45;;;;;;;3.40;2.20;;;;;;;20.32;42.64;100479.56;5022791;28;20053;-81
2023/12/31 00:08:11;;;;;;;2.92;1.77;;;;;;;20.18;42.77;100467.25;5011750;28;20037;-81
2023/12/31 00:10:39;;;;;;;2.97;2.13;;;;;;;20.20;42.82;100473.97;5021835;28;20037;-80
2023/12/31 00:13:05;;;;;;;2.60;2.10;;;;;;;20.18;42.92;100469.88;5021948;28;20410;-80
2023/12/31 00:15:31;;;;;;;2.85;1.60;;;;;;;20.19;42.78;100467.06;5023460;28;20132;-79
2023/12/31 00:17:56;;;;;;;2.42;1.70;;;;;;;20.04;42.82;100433.75;5008919;28;20159;-81
2023/12/31 00:20:22;;;;;;;2.67;1.90;;;;;;;20.02;43.00;100436.59;5019973;28;20856;-81
2023/12/31 00:22:47;;;;;;;4.95;2.17;;;;;;;20.23;43.01;100470.13;5010171;28;20037;-81
2023/12/31 00:25:13;;;;;;;3.03;1.80;;;;;;;20.20;42.91;100467.88;5035573;28;20076;-83
2023/12/31 00:27:38;;;;;;;2.78;2.00;;;;;;;20.13;42.96;100456.44;5017442;28;20497;-81
2023/12/31 00:30:05;;;;;;;3.00;1.90;;;;;;;20.18;42.99;100465.41;5020341;28;20548;-81
2023/12/31 00:32:30;;;;;;;2.35;1.88;;;;;;;20.19;42.98;100468.88;5037554;28;20040;-82
2023/12/31 00:34:56;;;;;;;3.95;1.83;;;;;;;20.10;43.05;100454.13;5030642;28;20245;-81
2023/12/31 00:37:21;;;;;;;1.85;1.73;;;;;;;20.17;42.97;100466.44;5034865;28;20029;-81
2023/12/31 00:39:47;;;;;;;2.20;1.83;;;;;;;20.07;42.91;100449.25;5020652;28;20283;-80
2023/12/31 00:42:12;;;;;;;2.83;1.70;;;;;;;19.98;42.86;100435.34;5001419;28;20099;-80
2023/12/31 00:44:38;;;;;;;1.90;1.70;;;;;;;19.96;43.03;100434.72;5004623;28;20277;-80
2023/12/31 00:47:04;;;;;;;2.83;1.70;;;;;;;20.03;42.94;100445.34;5007428;28;20057;-82
2023/12/31 00:49:30;;;;;;;2.20;1.65;;;;;;;19.87;43.04;100404.97;5005005;28;20052;-82
2023/12/31 00:51:55;;;;;;;2.80;1.85;;;;;;;20.05;43.15;100440.69;5008345;28;20630;-81
2023/12/31 00:54:21;;;;;;;2.65;1.70;;;;;;;19.94;43.12;100418.25;5020620;28;20048;-80
2023/12/31 00:56:46;;;;;;;1.65;1.52;;;;;;;20.06;42.86;100437.03;5028206;28;20038;-81
2023/12/31 00:59:12;;;;;;;3.33;1.92;;;;;;;20.05;42.94;100430.94;5021739;28;20038;-81
2023/12/31 01:01:37;;;;;;;3.13;1.80;;;;;;;19.84;42.96;100391.31;5026292;28;20634;-82
2023/12/31 01:04:03;;;;;;;2.40;1.88;;;;;;;20.03;43.10;100422.38;4987599;28;20049;-80
2023/12/31 01:06:29;;;;;;;2.55;1.55;;;;;;;19.88;43.10;100388.09;5031696;28;20045;-80
2023/12/31 01:08:56;;;;;;;2.92;1.70;;;;;;;19.78;43.11;100377.06;4975346;28;20056;-80
2023/12/31 01:11:22;;;;;;;2.80;1.58;;;;;;;19.85;43.08;100388.47;5036733;28;20064;-82
2023/12/31 01:13:48;;;;;;;1.70;1.60;;;;;;;19.76;43.16;100362.41;4989229;28;20041;-81
2023/12/31 01:16:13;;;;;;;2.03;1.80;;;;;;;19.88;43.17;100382.00;5023187;28;20080;-80
2023/12/31 01:18:39;;;;;;;1.42;1.17;;;;;;;19.97;43.18;100398.53;5004351;28;20037;-81
2023/12/31 01:21:05;;;;;;;2.20;1.50;;;;;;;19.84;43.11;100372.81;5003654;28;20050;-81
2023/12/31 01:23:31;;;;;;;2.30;1.80;;;;;;;19.82;43.14;100370.38;4980085;28;20052;-81
2023/12/31 01:25:57;;;;;;;1.98;1.55;;;;;;;19.84;43.13;100371.00;5022041;28;20527;-81
2023/12/31 01:28:22;;;;;;;2.30;1.40;;;;;;;19.92;43.18;100383.25;5017745;28;20033;-81
2023/12/31 01:30:48;;;;;;;2.05;1.58;;;;;;;19.75;43.14;100350.16;5020031;28;20739;-81
2023/12/31 01:33:13;;;;;;;3.13;1.50;;;;;;;19.78;43.36;100353.28;5012451;28;20545;-81
2023/12/31 01:35:39;;;;;;;2.05;1.50;;;;;;;19.88;43.28;100366.94;5008123;28;20548;-81
2023/12/31 01:38:05;;;;;;;2.50;1.75;;;;;;;19.75;43.08;100343.09;5011976;28;20049;-82
2023/12/31 01:40:30;;;;;;;1.83;1.27;;;;;;;19.79;43.22;100339.06;5005987;28;20060;-82
2023/12/31 01:42:56;;;;;;;2.20;1.38;;;;;;;19.72;43.29;100327.59;5006305;28;20642;-82
2023/12/31 01:45:22;;;;;;;1.75;1.60;;;;;;;19.87;43.31;100353.94;5006223;28;20033;-82
2023/12/31 01:47:48;;;;;;;1.65;1.50;;;;;;;19.76;43.19;100350.00;5004685;28;20030;-82
2023/12/31 01:50:15;;;;;;;1.83;1.33;;;;;;;19.81;43.15;100341.50;5017351;28;20684;-83
2023/12/31 01:52:42;;;;;;;2.08;1.60;;;;;;;19.74;43.32;100332.69;5012323;28;20113;-81
2023/12/31 01:55:08;;;;;;;2.33;1.25;;;;;;;19.76;43.18;100334.16;5023686;28;20037;-82
2023/12/31 01:57:37;;;;;;;1.70;1.52;;;;;;;19.80;43.40;100326.66;5008043;28;20476;-81
2023/12/31 02:00:06;;;;;;;1.83;1.60;;;;;;;19.81;43.33;100336.22;5009485;28;20478;-81
2023/12/31 02:02:42;;;;;;;2.25;1.80;;;;;;;19.73;43.39;100315.19;5038240;28;20143;-82
2023/12/31 02:05:08;;;;;;;2.42;1.50;;;;;;;19.79;43.21;100322.38;5009327;28;20508;-81
2023/12/31 02:07:33;;;;;;;2.72;1.70;;;;;;;19.61;43.24;100289.31;5019314;28;20046;-81
2023/12/31 02:09:59;;;;;;;1.27;1.17;;;;;;;19.52;43.36;100271.13;5007793;28;20777;-80
2023/12/31 02:12:24;;;;;;;2.13;1.50;;;;;;;19.71;43.36;100299.53;5037724;28;20049;-81
2023/12/31 02:14:50;;;;;;;1.27;1.17;;;;;;;19.70;43.28;100292.63;5036394;28;20037;-81
2023/12/31 02:17:16;;;;;;;1.50;1.40;;;;;;;19.63;43.19;100275.94;5021027;28;20770;-82
2023/12/31 02:19:41;;;;;;;1.50;1.38;;;;;;;19.67;43.25;100279.00;5004727;28;20041;-80
2023/12/31 02:22:08;;;;;;;1.67;1.25;;;;;;;19.74;43.35;100293.88;5021556;28;20044;-80
2023/12/31 02:24:44;;;;;;;1.60;1.48;;;;;;;19.66;43.44;100272.91;5023593;28;20044;-81
2023/12/31 02:27:10;;;;;;;1.85;1.50;;;;;;;19.66;43.32;100264.16;5017781;28;20040;-80
2023/12/31 02:29:35;;;;;;;1.52;1.42;;;;;;;19.67;43.42;100269.25;5016551;28;20041;-81
2023/12/31 02:32:01;;;;;;;1.80;1.30;;;;;;;19.59;43.45;100253.56;5005015;28;20041;-82
2023/12/31 02:34:26;;;;;;;2.03;1.30;;;;;;;19.70;43.39;100260.13;5008722;28;20136;-80
2023/12/31 02:36:52;;;;;;;1.83;1.40;;;;;;;19.47;43.36;100226.00;5009075;28;20065;-81
2023/12/31 02:39:18;;;;;;;1.42;1.30;;;;;;;19.64;43.32;100248.50;5015799;28;20550;-81
2023/12/31 02:41:43;;;;;;;2.47;1.80;;;;;;;19.68;43.44;100257.66;4981039;28;20045;-80
2023/12/31 02:44:09;;;;;;;1.75;1.33;;;;;;;19.63;43.34;100244.22;5017522;28;20448;-81
2023/12/31 02:46:34;;;;;;;2.83;1.55;;;;;;;19.56;43.40;100223.03;5015564;28;20669;-81
2023/12/31 02:49:00;;;;;;;2.40;1.40;;;;;;;19.64;43.39;100232.66;5018075;28;20037;-83
2023/12/31 02:51:25;;;;;;;1.33;1.23;;;;;;;19.52;43.36;100202.47;5023042;28;20029;-82
2023/12/31 02:53:51;;;;;;;1.70;1.50;;;;;;;19.52;43.39;100213.03;5007152;28;20037;-81
2023/12/31 02:56:16;;;;;;;1.27;1.10;;;;;;;19.58;43.48;100217.59;5018534;28;20397;-81
2023/12/31 02:58:42;;;;;;;2.42;1.50;;;;;;;19.48;43.45;100198.56;5007067;28;20057;-81
2023/12/31 03:01:07;;;;;;;1.35;1.25;;;;;;;19.31;43.48;100163.72;4991058;28;20044;-81
2023/12/31 03:03:33;;;;;;;1.38;1.15;;;;;;;19.52;43.52;100191.91;5003297;28;20033;-81
2023/12/31 03:05:58;;;;;;;2.28;1.40;;;;;;;19.61;43.40;100204.00;5005554;28;20037;-80
2023/12/31 03:08:24;;;;;;;2.40;1.30;;;;;;;19.47;43.45;100178.47;5031534;28;20222;-80
2023/12/31 03:10:49;;;;;;;1.50;1.20;;;;;;;19.52;43.44;100178.69;5015151;28;20608;-80
2023/12/31 03:13:15;;;;;;;2.08;1.08;;;;;;;19.45;43.56;100162.00;5018162;28;20049;-80
2023/12/31 03:15:41;;;;;;;1.33;1.13;;;;;;;19.46;43.54;100161.00;5020265;28;20103;-81
2023/12/31 03:18:06;;;;;;;2.03;1.20;;;;;;;19.49;43.44;100166.69;4990617;28;20038;-80
2023/12/31 03:20:32;;;;;;;2.55;1.50;;;;;;;19.44;43.41;100144.53;4993786;28;20064;-80
2023/12/31 03:22:57;;;;;;;1.73;1.17;;;;;;;19.55;43.55;100165.94;5018528;28;20100;-83
2023/12/31 03:25:23;;;;;;;0.90;0.90;;;;;;;19.38;43.56;100134.72;5013966;28;20040;-81
2023/12/31 03:27:49;;;;;;;2.08;1.00;;;;;;;19.49;43.58;100150.84;5041235;28;20045;-80
2023/12/31 03:30:15;;;;;;;2.50;1.40;;;;;;;19.40;43.62;100141.47;4992250;28;20033;-80
2023/12/31 03:32:40;;;;;;;1.67;1.33;;;;;;;19.50;43.49;100149.03;5004379;28;20045;-81
2023/12/31 03:35:06;;;;;;;1.30;1.20;;;;;;;19.50;43.51;100143.75;4996921;28;20774;-83
2023/12/31 03:37:32;;;;;;;1.42;1.13;;;;;;;19.38;43.45;100129.44;5023172;28;20495;-83
2023/12/31 03:39:58;;;;;;;2.00;1.33;;;;;;;19.42;43.57;100136.81;5022322;28;20057;-83
2023/12/31 03:42:24;;;;;;;1.17;1.08;;;;;;;19.47;43.61;100134.38;5008608;28;20033;-82
2023/12/31 03:44:49;;;;;;;1.30;1.10;;;;;;;19.32;43.54;100117.84;5008650;28;20042;-83
2023/12/31 03:47:15;;;;;;;0.95;0.90;;;;;;;19.48;43.66;100145.78;5022097;28;20484;-83
2023/12/31 03:49:40;;;;;;;1.75;1.17;;;;;;;19.33;43.48;100115.00;5021456;28;20033;-83
2023/12/31 03:52:06;;;;;;;2.03;1.20;;;;;;;19.47;43.53;100138.84;4999475;28;20099;-84
2023/12/31 03:54:32;;;;;;;1.13;0.88;;;;;;;19.39;43.52;100129.28;5009890;28;20033;-84
2023/12/31 03:56:58;;;;;;;1.65;1.45;;;;;;;19.37;43.49;100119.88;5016429;28;20107;-82
2023/12/31 03:59:23;;;;;;;1.60;0.88;;;;;;;19.44;43.72;100121.56;4995994;28;20042;-83
2023/12/31 04:01:55;;;;;;;0.80;0.80;;;;;;;19.45;43.58;100123.22;4986819;28;20060;-83
2023/12/31 04:04:21;;;;;;;1.27;1.10;;;;;;;19.40;43.55;100103.69;5021762;28;20041;-82
2023/12/31 04:06:47;;;;;;;1.10;1.00;;;;;;;19.29;43.62;100092.66;5007401;28;20037;-83
2023/12/31 04:09:12;;;;;;;0.95;0.90;;;;;;;19.43;43.54;100100.66;5004241;28;20041;-80
2023/12/31 04:11:38;;;;;;;1.98;1.40;;;;;;;19.35;43.58;100088.41;5020248;28;20041;-81
2023/12/31 04:14:03;;;;;;;1.45;1.20;;;;;;;19.33;43.58;100083.31;4990889;28;20029;-81
2023/12/31 04:16:29;;;;;;;1.55;1.10;;;;;;;19.33;43.63;100080.69;5027429;28;20048;-80
2023/12/31 04:18:55;;;;;;;2.13;1.17;;;;;;;19.37;43.58;100072.38;5033297;28;20730;-81
2023/12/31 04:21:20;;;;;;;1.15;1.15;;;;;;;19.39;43.62;100073.84;5037892;28;20274;-81
2023/12/31 04:23:46;;;;;;;1.50;1.10;;;;;;;19.26;43.66;100044.72;5019672;28;20049;-80
2023/12/31 04:26:11;;;;;;;1.38;1.27;;;;;;;19.39;43.71;100062.44;5018090;28;20037;-81
2023/12/31 04:28:37;;;;;;;1.23;1.00;;;;;;;19.28;43.49;100040.06;5007685;28;20071;-81
2023/12/31 04:31:03;;;;;;;1.85;1.17;;;;;;;19.38;43.58;100056.34;5004709;28;20041;-80
2023/12/31 04:33:28;;;;;;;1.63;1.00;;;;;;;19.37;43.67;100054.69;5021021;28;20448;-80
2023/12/31 04:35:54;;;;;;;1.67;1.15;;;;;;;19.36;43.74;100042.50;5018773;28;20115;-80
2023/12/31 04:38:20;;;;;;;1.40;1.30;;;;;;;19.30;43.63;100024.81;5033026;28;20029;-80
2023/12/31 04:40:47;;;;;;;1.90;1.30;;;;;;;19.11;43.54;99986.75;5002211;28;20540;-81
2023/12/31 04:43:12;;;;;;;1.58;0.93;;;;;;;19.29;43.51;100013.44;4989352;28;20034;-81
2023/12/31 04:45:39;;;;;;;0.88;0.88;;;;;;;19.37;43.58;100014.28;5037864;28;20041;-80
2023/12/31 04:48:04;;;;;;;1.77;1.08;;;;;;;19.35;43.68;100019.75;5006883;28;20152;-80
2023/12/31 04:50:30;;;;;;;1.17;1.00;;;;;;;19.34;43.68;100004.94;5004577;28;20077;-81
2023/12/31 04:52:55;;;;;;;1.27;1.15;;;;;;;19.24;43.67;99984.19;5015283;28;20416;-81
2023/12/31 04:55:22;;;;;;;1.65;1.20;;;;;;;19.33;43.72;100006.75;5018564;28;20030;-80
2023/12/31 04:57:49;;;;;;;1.60;1.10;;;;;;;19.32;43.78;99994.56;5019042;28;20110;-81
2023/12/31 05:00:15;;;;;;;1.40;1.30;;;;;;;19.22;43.60;99980.94;4990505;28;20088;-80
2023/12/31 05:02:41;;;;;;;1.40;1.10;;;;;;;19.23;43.73;99979.94;5018872;28;20151;-81
2023/12/31 05:05:07;;;;;;;1.63;1.10;;;;;;;19.21;43.68;99974.03;5026361;28;20041;-80
2023/12/31 05:07:32;;;;;;;1.10;0.80;;;;;;;19.21;43.84;99970.56;5021164;28;20544;-81
2023/12/31 05:09:58;;;;;;;1.38;0.90;;;;;;;19.20;43.69;99975.03;4980412;28;20026;-81
2023/12/31 05:12:24;;;;;;;1.55;1.00;;;;;;;19.32;43.79;99988.47;5023073;28;20049;-81
2023/12/31 05:14:49;;;;;;;1.83;0.95;;;;;;;19.30;43.81;99966.75;5006948;28;20038;-80
2023/12/31 05:17:15;;;;;;;0.95;0.93;;;;;;;19.29;43.79;99952.75;5017448;28;20454;-80
2023/12/31 05:19:41;;;;;;;1.33;0.70;;;;;;;19.08;43.76;99915.09;5023877;28;20041;-81
2023/12/31 05:22:06;;;;;;;1.42;1.20;;;;;;;19.28;43.74;99943.19;5023428;28;20057;-80
2023/12/31 05:24:32;;;;;;;1.80;1.27;;;;;;;19.38;43.74;99942.00;5031017;28;20103;-81
2023/12/31 05:26:57;;;;;;;1.02;0.90;;;;;;;19.34;43.59;99936.31;5010245;28;20038;-81
2023/12/31 05:29:23;;;;;;;1.45;0.90;;;;;;;19.21;43.80;99913.34;4987098;28;20838;-79
2023/12/31 05:31:48;;;;;;;1.52;1.10;;;;;;;19.21;43.71;99910.69;5023430;28;20088;-79
2023/12/31 05:34:14;;;;;;;1.15;0.77;;;;;;;19.34;43.56;99923.09;5008291;28;20092;-80
2023/12/31 05:36:39;;;;;;;1.58;1.00;;;;;;;19.25;43.81;99906.63;5007560;28;20160;-81
2023/12/31 05:39:05;;;;;;;0.77;0.75;;;;;;;19.30;43.79;99912.13;5022068;28;20115;-81
2023/12/31 05:41:31;;;;;;;1.17;1.10;;;;;;;19.18;43.83;99878.59;5011941;28;20057;-80
2023/12/31 05:43:56;;;;;;;0.73;0.73;;;;;;;19.22;43.91;99895.66;4991866;28;20057;-81
2023/12/31 05:46:22;;;;;;;1.15;1.05;;;;;;;19.18;43.94;99873.31;5013824;28;20041;-80
2023/12/31 05:48:47;;;;;;;1.65;1.10;;;;;;;19.14;43.97;99858.88;5004787;28;20034;-81
2023/12/31 05:51:13;;;;;;;1.08;0.80;;;;;;;19.25;43.73;99872.31;5025261;28;20037;-84
2023/12/31 05:53:38;;;;;;;1.75;0.90;;;;;;;19.31;43.77;99873.34;5008856;28;20037;-82
2023/12/31 05:56:04;;;;;;;1.27;1.10;;;;;;;19.19;43.76;99861.72;5032821;28;20489;-81
2023/12/31 05:58:29;;;;;;;1.60;0.75;;;;;;;19.22;43.89;99854.25;5026891;28;20048;-80
2023/12/31 06:00:55;;;;;;;1.48;1.17;;;;;;;19.16;43.83;99846.31;5006952;28;20474;-81
2023/12/31 06:03:21;;;;;;;1.38;0.90;;;;;;;19.15;43.79;99836.75;5008661;28;20045;-81
2023/12/31 06:05:46;;;;;;;1.63;1.15;;;;;;;19.15;43.92;99839.41;5023361;28;20076;-81
2023/12/31 06:08:12;;;;;;;1.30;1.00;;;;;;;19.14;43.96;99838.59;4991331;28;20057;-81
2023/12/31 06:10:37;;;;;;;1.38;1.17;;;;;;;19.20;43.72;99834.31;5038846;28;20374;-81
2023/12/31 06:13:03;;;;;;;1.33;1.23;;;;;;;19.28;43.79;99850.00;5019228;28;20042;-80
2023/12/31 06:15:28;;;;;;;1.83;1.00;;;;;;;19.04;43.91;99814.41;4991685;28;20042;-81
2023/12/31 06:17:54;;;;;;;2.35;1.27;;;;;;;19.06;43.96;99816.84;5001753;28;20048;-81
2023/12/31 06:20:20;;;;;;;0.60;0.60;;;;;;;19.04;43.83;99797.78;5008424;28;20029;-81
2023/12/31 06:22:45;;;;;;;1.20;0.80;;;;;;;19.10;43.94;99802.25;5036025;28;20037;-83
2023/12/31 06:25:11;;;;;;;0.80;0.80;;;;;;;19.21;43.80;99814.84;5009220;28;20048;-83
2023/12/31 06:27:38;;;;;;;1.60;1.00;;;;;;;18.97;43.80;99779.28;5016776;28;20045;-84
2023/12/31 06:30:04;;;;;;;1.33;1.10;;;;;;;19.11;43.86;99809.16;5025602;28;20103;-84
2023/12/31 06:32:30;;;;;;;1.08;0.95;;;;;;;19.11;43.75;99796.75;5003437;28;20075;-83
2023/12/31 06:34:55;;;;;;;1.00;0.90;;;;;;;19.11;43.84;99794.13;5023309;28;20096;-83
2023/12/31 06:37:21;;;;;;;1.08;0.90;;;;;;;19.16;43.99;99802.25;5025273;28;20056;-83
2023/12/31 06:39:47;;;;;;;1.20;1.10;;;;;;;19.07;43.76;99790.25;5017331;28;20045;-83
2023/12/31 06:42:13;;;;;;;1.00;0.90;;;;;;;19.20;43.52;99802.66;5021642;28;20108;-80
2023/12/31 06:44:38;;;;;;;1.02;0.88;;;;;;;19.22;43.99;99808.56;5034554;28;20029;-80
2023/12/31 06:47:04;;;;;;;0.85;0.85;;;;;;;18.81;43.80;99748.78;5011338;28;20045;-81
2023/12/31 06:49:30;;;;;;;1.48;1.20;;;;;;;19.13;43.92;99786.81;5025473;28;20116;-80
2023/12/31 06:51:55;;;;;;;1.23;0.95;;;;;;;19.17;43.95;99781.94;5018118;28;20045;-83
2023/12/31 06:54:21;;;;;;;0.73;0.73;;;;;;;19.05;43.86;99762.47;5005066;28;20749;-83
2023/12/31 06:56:46;;;;;;;1.17;1.08;;;;;;;18.94;43.76;99742.75;5005937;28;20053;-83
2023/12/31 06:59:13;;;;;;;1.08;0.60;;;;;;;18.94;43.86;99740.91;4989389;28;20041;-83
2023/12/31 07:01:38;;;;;;;0.73;0.73;;;;;;;19.21;43.75;99776.09;5015578;28;20054;-83
2023/12/31 07:04:04;;;;;;;0.85;0.65;;;;;;;18.99;43.98;99740.31;5027168;28;20611;-83
2023/12/31 07:06:30;;;;;;;2.15;1.20;;;;;;;19.11;43.91;99753.72;5017554;28;20037;-83
2023/12/31 07:08:55;;;;;;;1.13;1.02;;;;;;;19.08;43.73;99754.94;5004216;28;20045;-83
2023/12/31 07:11:21;;;;;;;0.90;0.90;;;;;;;18.98;43.71;99718.38;5005901;28;20041;-82
2023/12/31 07:13:47;;;;;;;1.20;1.10;;;;;;;19.30;43.46;99766.13;5033775;28;20132;-80
2023/12/31 07:16:14;;;;;;;1.13;1.02;;;;;;;19.22;43.40;99727.56;5020389;28;20053;-81
2023/12/31 07:18:39;;;;;;;1.55;1.15;;;;;;;19.42;43.62;99745.25;5036409;28;20140;-81
2023/12/31 07:21:05;;;;;;;1.88;1.17;;;;;;;19.27;43.49;99714.56;5024620;28;20064;-82
2023/12/31 07:23:31;;;;;;;0.80;0.80;;;;;;;19.25;43.51;99711.31;5023081;28;20033;-80
2023/12/31 07:25:56;;;;;;;1.45;1.00;;;;;;;19.52;43.56;99751.72;5018641;28;20678;-81
2023/12/31 07:28:22;;;;;;;1.95;1.30;;;;;;;19.52;43.63;99730.59;5025211;28;20045;-80
2023/12/31 07:30:47;;;;;;;1.17;0.73;;;;;;;19.56;43.51;99731.84;5040677;28;20589;-81
2023/12/31 07:33:13;;;;;;;1.27;0.90;;;;;;;19.62;43.47;99724.94;5020756;28;20658;-80
2023/12/31 07:35:38;;;;;;;1.00;0.93;;;;;;;19.52;43.54;99714.75;5025351;28;20037;-80
2023/12/31 07:38:07;;;;;;;1.25;0.88;;;;;;;19.49;43.44;99694.03;5022418;28;20041;-81
2023/12/31 07:40:33;;;;;;;1.63;1.05;;;;;;;19.56;43.30;99697.50;5021231;28;20045;-81
2023/12/31 07:42:58;;;;;;;1.60;1.00;;;;;;;19.45;43.37;99673.53;5020560;28;20079;-80
2023/12/31 07:45:25;;;;;;;1.23;1.08;;;;;;;19.75;43.24;99710.91;5007370;28;20038;-81
2023/12/31 07:47:52;;;;;;;1.17;1.05;;;;;;;19.67;43.29;99696.09;5018187;28;20041;-81
2023/12/31 07:50:18;;;;;;;1.10;1.00;;;;;;;19.69;43.16;99696.69;5033320;28;20462;-81
2023/12/31 07:52:44;;;;;;;1.23;1.00;;;;;;;19.72;43.27;99698.91;5032444;28;20164;-81
2023/12/31 07:55:09;;;;;;;0.80;0.80;;;;;;;19.67;43.40;99693.44;5031997;28;20393;-81
2023/12/31 07:57:35;;;;;;;1.55;1.23;;;;;;;19.62;43.44;99695.91;5025232;28;20698;-82
2023/12/31 08:00:04;;;;;;;1.00;0.90;;;;;;;19.58;43.42;99684.13;5035612;28;20135;-84
2023/12/31 08:02:37;;;;;;;1.10;0.90;;;;;;;19.67;43.48;99695.28;5014500;28;20137;-84
2023/12/31 08:05:03;;;;;;;2.03;1.17;;;;;;;19.46;43.48;99651.41;5004486;28;20140;-82
2023/12/31 08:07:29;;;;;;;1.48;1.02;;;;;;;19.49;43.53;99640.44;5010641;28;20166;-82
2023/12/31 08:09:55;;;;;;;1.38;1.10;;;;;;;19.66;43.47;99680.44;5019512;28;20052;-83
2023/12/31 08:12:21;;;;;;;1.10;1.00;;;;;;;19.62;43.49;99674.78;5006591;28;20033;-82
2023/12/31 08:14:46;;;;;;;1.63;1.20;;;;;;;19.42;43.46;99637.81;5035563;28;20091;-83
2023/12/31 08:17:12;;;;;;;1.08;1.00;;;;;;;19.67;43.48;99674.16;5020561;28;20045;-83
2023/12/31 08:19:37;;;;;;;0.80;0.80;;;;;;;19.47;43.43;99648.56;5020377;28;20375;-83
2023/12/31 08:22:03;;;;;;;1.25;0.88;;;;;;;19.69;43.26;99672.13;5021404;28;20037;-83
2023/12/31 08:24:29;;;;;;;1.45;1.02;;;;;;;19.29;43.28;99616.69;4999997;28;20054;-82
2023/12/31 08:26:54;;;;;;;1.15;0.95;;;;;;;19.47;43.37;99645.91;5017654;28;20068;-81
2023/12/31 08:29:20;;;;;;;1.50;1.35;;;;;;;19.51;43.33;99648.97;5017955;28;21185;-81
2023/12/31 08:31:49;;;;;;;1.23;0.90;;;;;;;19.61;43.35;99658.13;5002041;28;20056;-83
2023/12/31 08:34:15;;;;;;;0.93;0.93;;;;;;;19.58;43.34;99640.06;5006819;28;20599;-83
2023/12/31 08:36:40;;;;;;;1.25;1.20;;;;;;;19.50;43.37;99620.94;5039498;28;20037;-82
2023/12/31 08:39:06;;;;;;;2.08;1.33;;;;;;;19.75;43.26;99658.91;5020724;28;20650;-82
2023/12/31 08:41:32;;;;;;;1.35;1.25;;;;;;;19.78;43.04;99660.31;5016763;28;20037;-81
2023/12/31 08:43:58;;;;;;;1.52;1.30;;;;;;;19.68;43.24;99638.78;5021424;28;20377;-82
2023/12/31 08:46:23;;;;;;;1.75;1.40;;;;;;;19.75;43.41;99627.22;5015486;28;20769;-81
2023/12/31 08:48:49;;;;;;;1.67;1.30;;;;;;;19.61;43.42;99607.94;5033201;28;20040;-81
2023/12/31 08:51:14;;;;;;;2.22;1.20;;;;;;;19.64;43.56;99622.56;5019706;28;20041;-84
2023/12/31 08:53:41;;;;;;;1.65;1.00;;;;;;;19.55;43.42;99600.84;5007039;28;20042;-82
2023/12/31 08:56:06;;;;;;;1.55;1.20;;;;;;;19.70;43.55;99615.63;5021122;28;20046;-83
2023/12/31 08:58:32;;;;;;;1.27;1.15;;;;;;;19.45;43.30;99589.88;5010092;28;20042;-83
2023/12/31 09:00:57;;;;;;;1.58;1.23;;;;;;;19.59;43.53;99601.25;5005452;28;20068;-83
2023/12/31 09:03:24;;;;;;;1.33;1.15;;;;;;;19.67;43.42;99616.06;5020128;28;20033;-82
2023/12/31 09:05:49;;;;;;;2.35;1.35;;;;;;;19.55;43.39;99600.84;4991836;28;20382;-84
2023/12/31 09:08:15;;;;;;;1.40;1.30;;;;;;;19.71;43.49;99619.88;5023276;28;20037;-84
2023/12/31 09:10:41;;;;;;;3.35;1.52;;;;;;;19.45;43.44;99575.88;5003998;28;20037;-83
2023/12/31 09:13:06;;;;;;;2.05;1.40;;;;;;;19.60;43.35;99602.88;5021177;28;20304;-83
2023/12/31 09:15:32;;;;;;;1.80;1.30;;;;;;;19.74;43.39;99607.06;5001066;28;20037;-84
2023/12/31 09:17:58;;;;;;;1.77;1.40;;;;;;;19.63;42.95;99583.97;5022823;28;20827;-83
2023/12/31 09:20:23;;;;;;;1.52;1.40;;;;;;;19.55;43.24;99569.16;5008654;28;20049;-87
2023/12/31 09:22:52;;;;;;;2.05;1.40;;;;;;;19.58;43.37;99573.22;4990031;28;20099;-83
2023/12/31 09:25:19;;;;;;;2.00;1.52;;;;;;;19.78;43.26;99603.03;5020139;28;20038;-83
2023/12/31 09:27:45;;;;;;;1.27;1.15;;;;;;;19.73;43.29;99588.78;5036379;28;20583;-81
2023/12/31 09:30:11;;;;;;;2.85;1.50;;;;;;;19.73;43.25;99594.06;5032282;28;20030;-84
2023/12/31 09:32:36;;;;;;;1.85;1.15;;;;;;;19.76;43.35;99583.94;5010911;28;21026;-83
2023/12/31 09:35:02;;;;;;;2.05;1.20;;;;;;;19.61;43.16;99565.69;5022803;28;20061;-83
2023/12/31 09:37:29;;;;;;;1.23;1.10;;;;;;;19.77;43.07;99580.28;5003316;28;20227;-83
2023/12/31 09:39:54;;;;;;;1.55;1.30;;;;;;;19.84;43.18;99567.84;5004203;28;20060;-83
2023/12/31 09:42:49;;;;;;;2.00;1.48;;;;;;;19.77;43.05;99576.81;5024102;28;20462;-83
2023/12/31 09:45:28;;;;;;;2.03;1.42;;;;;;;19.84;43.19;99573.13;5022678;28;20057;-84
2023/12/31 09:47:57;;;;;;;1.67;1.42;;;;;;;19.57;43.56;99545.19;5035334;28;20185;-82
2023/12/31 09:50:23;;;;;;;2.97;1.30;;;;;;;19.71;43.60;99553.84;5015922;28;20034;-82
2023/12/31 09:52:50;;;;;;;2.47;1.50;;;;;;;19.87;43.80;99563.94;5022100;28;20037;-81
2023/12/31 09:55:18;;;;;;;1.52;1.30;;;;;;;19.80;43.63;99553.44;5018314;28;20398;-83
2023/12/31 09:57:46;;;;;;;2.58;1.30;;;;;;;19.83;43.88;99554.84;5021135;28;20044;-83
2023/12/31 10:00:12;;;;;;;1.55;1.40;;;;;;;19.77;43.56;99537.19;5019241;28;20359;-83
2023/12/31 10:02:38;;;;;;;1.85;1.42;;;;;;;20.00;43.45;99566.53;5034333;28;20111;-83
2023/12/31 10:05:05;;;;;;;2.05;1.55;;;;;;;20.05;43.42;99561.44;5027198;28;20037;-83
2023/12/31 10:07:31;;;;;;;2.30;1.42;;;;;;;19.98;43.25;99541.34;5023215;28;20466;-83
2023/12/31 10:10:00;;;;;;;2.67;1.50;;;;;;;19.87;43.17;99519.84;5028871;28;20056;-83
2023/12/31 10:12:27;;;;;;;1.40;1.30;;;;;;;20.09;43.19;99546.75;5038781;28;20041;-82
2023/12/31 10:14:53;;;;;;;1.73;1.60;;;;;;;20.01;43.22;99525.06;5023154;28;20038;-81
2023/12/31 10:17:19;;;;;;;2.08;1.60;;;;;;;20.01;43.09;99512.66;4992603;28;20034;-81
2023/12/31 10:19:48;;;;;;;1.67;1.52;;;;;;;20.13;43.13;99524.19;5021344;28;20115;-81
2023/12/31 10:22:13;;;;;;;1.55;1.45;;;;;;;20.19;42.94;99512.75;5046596;28;20071;-81
2023/12/31 10:24:40;;;;;;;1.65;1.50;;;;;;;20.12;42.88;99498.78;5030377;28;20072;-80
2023/12/31 10:27:08;;;;;;;2.17;1.65;;;;;;;20.16;42.82;99485.97;5032349;28;20037;-79
2023/12/31 10:29:35;;;;;;;2.90;1.65;;;;;;;20.11;42.75;99478.69;5029754;28;20037;-80
2023/12/31 10:32:04;;;;;;;1.85;1.60;;;;;;;20.17;42.85;99492.84;5025817;28;20180;-80
2023/12/31 10:34:30;;;;;;;2.47;1.88;;;;;;;20.10;42.88;99476.22;5038706;28;20382;-82
2023/12/31 10:37:07;;;;;;;2.35;1.80;;;;;;;20.21;43.02;99480.81;5020890;28;20196;-81
2023/12/31 10:39:36;;;;;;;1.58;1.45;;;;;;;20.11;43.25;99488.44;5027662;28;20065;-81
2023/12/31 10:42:04;;;;;;;3.38;1.70;;;;;;;20.04;43.36;99469.97;5022613;28;20108;-81
2023/12/31 10:44:35;;;;;;;1.55;1.40;;;;;;;19.98;43.55;99462.91;5027235;28;20497;-80
2023/12/31 10:47:06;;;;;;;1.73;1.55;;;;;;;20.04;43.45;99469.16;5026066;28;20036;-81
2023/12/31 10:49:32;;;;;;;2.50;1.90;;;;;;;20.03;43.34;99457.78;5036157;28;20033;-82
2023/12/31 10:52:05;;;;;;;2.17;1.83;;;;;;;20.29;42.85;99464.72;5023031;28;20092;-81
2023/12/31 10:54:45;;;;;;;3.20;1.70;;;;;;;20.32;42.98;99469.56;5034205;28;20108;-81
2023/12/31 10:57:21;;;;;;;2.42;2.05;;;;;;;20.23;42.86;99457.63;5026518;28;20040;-82
2023/12/31 10:59:52;;;;;;;1.55;1.38;;;;;;;20.18;42.88;99446.91;5021616;28;20096;-81
2023/12/31 11:02:22;;;;;;;1.85;1.40;;;;;;;20.26;43.17;99453.75;5029315;28;20290;-81
2023/12/31 11:04:51;;;;;;;;;;;;;;;20.35;43.01;99461.22;5022742;28;20095;-82
2023/12/31 11:07:18;;;;;;;2.38;1.80;;;;;;;20.39;42.84;99451.81;5037024;28;19936;-83
2023/12/31 11:09:48;;;;;;;2.13;1.80;;;;;;;20.36;42.77;99446.97;5023141;28;20049;-83
2023/12/31 11:12:18;;;;;;;1.92;1.70;;;;;;;20.43;42.77;99452.22;5020064;28;20030;-83
2023/12/31 11:14:50;;;;;;;2.20;1.73;;;;;;;20.33;42.72;99430.72;5036695;28;20405;-84
2023/12/31 11:17:38;;;;;;;2.30;1.80;;;;;;;20.45;42.64;99455.44;5022475;28;20235;-83
2023/12/31 11:20:16;;;;;;;1.88;1.70;;;;;;;20.37;42.55;99438.00;5023927;28;20045;-83
2023/12/31 11:23:01;;;;;;;2.80;1.75;;;;;;;20.42;42.66;99446.13;5021100;28;20068;-84
2023/12/31 11:25:26;;;;;;;1.83;1.50;;;;;;;20.35;42.78;99424.19;5034450;28;20068;-81